sensor_id;sensor_type;location;lat;lon;timestamp;P1;durP1;ratioP1;P2;durP2;ratioP2
85257;SDS011;75669;48.038;10.158;2024-01-30T00:01:35;9.43;;;3.78;;
85257;SDS011;75669;48.038;10.158;2024-01-30T00:04:01;8.18;;;3.85;;
85257;SDS011;75669;48.038;10.158;2024-01-30T00:06:27;10.40;;;3.40;;
85257;SDS011;75669;48.038;10.158;2024-01-30T00:08:52;8.13;;;3.53;;
85257;SDS011;75669;48.038;10.158;2024-01-30T00:11:18;5.95;;;3.03;;
85257;SDS011;75669;48.038;10.158;2024-01-30T00:13:44;10.60;;;5.30;;
85257;SDS011;75669;48.038;10.158;2024-01-30T00:16:16;10.43;;;3.83;;
85257;SDS011;75669;48.038;10.158;2024-01-30T00:18:45;8.98;;;3.60;;
85257;SDS011;75669;48.038;10.158;2024-01-30T00:21:10;8.52;;;3.30;;
85257;SDS011;75669;48.038;10.158;2024-01-30T00:23:36;5.78;;;3.03;;
85257;SDS011;75669;48.038;10.158;2024-01-30T00:26:01;8.55;;;2.70;;
85257;SDS011;75669;48.038;10.158;2024-01-30T00:28:27;6.43;;;3.60;;
85257;SDS011;75669;48.038;10.158;2024-01-30T00:30:52;8.13;;;4.05;;
85257;SDS011;75669;48.038;10.158;2024-01-30T00:33:18;7.18;;;2.83;;
85257;SDS011;75669;48.038;10.158;2024-01-30T00:35:43;7.50;;;3.33;;
85257;SDS011;75669;48.038;10.158;2024-01-30T00:38:08;8.23;;;3.85;;
85257;SDS011;75669;48.038;10.158;2024-01-30T00:40:34;7.97;;;3.60;;
85257;SDS011;75669;48.038;10.158;2024-01-30T00:42:59;7.35;;;3.10;;
85257;SDS011;75669;48.038;10.158;2024-01-30T00:45:25;5.50;;;2.45;;
85257;SDS011;75669;48.038;10.158;2024-01-30T00:47:50;7.43;;;3.13;;
85257;SDS011;75669;48.038;10.158;2024-01-30T00:50:15;7.45;;;3.00;;
85257;SDS011;75669;48.038;10.158;2024-01-30T00:52:41;4.90;;;1.92;;
85257;SDS011;75669;48.038;10.158;2024-01-30T00:55:07;6.72;;;2.65;;
85257;SDS011;75669;48.038;10.158;2024-01-30T00:57:32;11.10;;;2.75;;
85257;SDS011;75669;48.038;10.158;2024-01-30T01:02:59;6.90;;;3.10;;
85257;SDS011;75669;48.038;10.158;2024-01-30T01:05:25;5.38;;;1.75;;
85257;SDS011;75669;48.038;10.158;2024-01-30T01:07:50;6.78;;;2.38;;
85257;SDS011;75669;48.038;10.158;2024-01-30T01:10:16;5.72;;;2.33;;
85257;SDS011;75669;48.038;10.158;2024-01-30T01:12:42;6.15;;;2.70;;
85257;SDS011;75669;48.038;10.158;2024-01-30T01:15:08;5.70;;;2.25;;
85257;SDS011;75669;48.038;10.158;2024-01-30T01:17:37;6.80;;;2.60;;
85257;SDS011;75669;48.038;10.158;2024-01-30T01:20:03;4.90;;;2.15;;
85257;SDS011;75669;48.038;10.158;2024-01-30T01:22:33;5.82;;;2.38;;
85257;SDS011;75669;48.038;10.158;2024-01-30T01:24:59;6.30;;;2.13;;
85257;SDS011;75669;48.038;10.158;2024-01-30T01:27:24;5.38;;;2.53;;
85257;SDS011;75669;48.038;10.158;2024-01-30T01:29:50;6.43;;;2.90;;
85257;SDS011;75669;48.038;10.158;2024-01-30T01:32:16;5.50;;;2.88;;
85257;SDS011;75669;48.038;10.158;2024-01-30T01:34:41;6.75;;;2.90;;
85257;SDS011;75669;48.038;10.158;2024-01-30T01:37:07;4.40;;;2.13;;
85257;SDS011;75669;48.038;10.158;2024-01-30T01:39:33;5.72;;;2.15;;
85257;SDS011;75669;48.038;10.158;2024-01-30T01:41:58;7.28;;;3.00;;
85257;SDS011;75669;48.038;10.158;2024-01-30T01:44:23;4.90;;;2.30;;
85257;SDS011;75669;48.038;10.158;2024-01-30T01:46:49;5.75;;;2.50;;
85257;SDS011;75669;48.038;10.158;2024-01-30T01:49:15;6.05;;;2.80;;
85257;SDS011;75669;48.038;10.158;2024-01-30T01:51:40;4.90;;;2.38;;
85257;SDS011;75669;48.038;10.158;2024-01-30T01:54:07;4.70;;;2.40;;
85257;SDS011;75669;48.038;10.158;2024-01-30T01:56:34;4.32;;;1.85;;
85257;SDS011;75669;48.038;10.158;2024-01-30T01:59:04;5.20;;;2.90;;
85257;SDS011;75669;48.038;10.158;2024-01-30T02:01:32;5.18;;;1.92;;
85257;SDS011;75669;48.038;10.158;2024-01-30T02:03:59;5.03;;;2.28;;
85257;SDS011;75669;48.038;10.158;2024-01-30T02:06:25;5.47;;;1.77;;
85257;SDS011;75669;48.038;10.158;2024-01-30T02:08:51;5.55;;;2.00;;
85257;SDS011;75669;48.038;10.158;2024-01-30T02:11:16;6.75;;;2.17;;
85257;SDS011;75669;48.038;10.158;2024-01-30T02:13:43;4.40;;;1.75;;
85257;SDS011;75669;48.038;10.158;2024-01-30T02:16:08;3.87;;;1.37;;
85257;SDS011;75669;48.038;10.158;2024-01-30T02:18:33;4.70;;;2.35;;
85257;SDS011;75669;48.038;10.158;2024-01-30T02:20:59;4.05;;;1.88;;
85257;SDS011;75669;48.038;10.158;2024-01-30T02:23:29;4.57;;;1.52;;
85257;SDS011;75669;48.038;10.158;2024-01-30T02:25:55;5.28;;;1.77;;
85257;SDS011;75669;48.038;10.158;2024-01-30T02:28:21;4.13;;;1.60;;
85257;SDS011;75669;48.038;10.158;2024-01-30T02:30:46;3.53;;;1.30;;
85257;SDS011;75669;48.038;10.158;2024-01-30T02:33:12;3.15;;;1.20;;
85257;SDS011;75669;48.038;10.158;2024-01-30T02:35:37;3.25;;;1.70;;
85257;SDS011;75669;48.038;10.158;2024-01-30T02:38:03;3.45;;;1.30;;
85257;SDS011;75669;48.038;10.158;2024-01-30T02:40:29;4.32;;;2.03;;
85257;SDS011;75669;48.038;10.158;2024-01-30T02:42:54;5.40;;;2.05;;
85257;SDS011;75669;48.038;10.158;2024-01-30T02:45:20;3.95;;;1.50;;
85257;SDS011;75669;48.038;10.158;2024-01-30T02:47:45;6.07;;;1.88;;
85257;SDS011;75669;48.038;10.158;2024-01-30T02:50:11;2.70;;;1.40;;
85257;SDS011;75669;48.038;10.158;2024-01-30T02:52:36;4.72;;;1.63;;
85257;SDS011;75669;48.038;10.158;2024-01-30T02:55:01;3.83;;;1.80;;
85257;SDS011;75669;48.038;10.158;2024-01-30T02:57:27;4.88;;;1.65;;
85257;SDS011;75669;48.038;10.158;2024-01-30T02:59:53;3.65;;;1.90;;
85257;SDS011;75669;48.038;10.158;2024-01-30T03:02:19;4.93;;;2.22;;
85257;SDS011;75669;48.038;10.158;2024-01-30T03:04:44;4.13;;;1.83;;
85257;SDS011;75669;48.038;10.158;2024-01-30T03:07:10;4.55;;;1.98;;
85257;SDS011;75669;48.038;10.158;2024-01-30T03:09:36;4.38;;;2.13;;
85257;SDS011;75669;48.038;10.158;2024-01-30T03:12:02;3.85;;;1.77;;
85257;SDS011;75669;48.038;10.158;2024-01-30T03:14:29;6.28;;;1.75;;
85257;SDS011;75669;48.038;10.158;2024-01-30T03:16:55;3.15;;;1.30;;
85257;SDS011;75669;48.038;10.158;2024-01-30T03:19:21;4.50;;;1.83;;
85257;SDS011;75669;48.038;10.158;2024-01-30T03:21:46;4.45;;;1.73;;
85257;SDS011;75669;48.038;10.158;2024-01-30T03:24:11;6.13;;;1.77;;
85257;SDS011;75669;48.038;10.158;2024-01-30T03:26:37;3.28;;;1.80;;
85257;SDS011;75669;48.038;10.158;2024-01-30T03:29:02;4.63;;;2.53;;
85257;SDS011;75669;48.038;10.158;2024-01-30T03:31:28;6.75;;;2.20;;
85257;SDS011;75669;48.038;10.158;2024-01-30T03:33:53;4.53;;;2.05;;
85257;SDS011;75669;48.038;10.158;2024-01-30T03:36:18;4.40;;;1.80;;
85257;SDS011;75669;48.038;10.158;2024-01-30T03:38:44;4.32;;;2.42;;
85257;SDS011;75669;48.038;10.158;2024-01-30T03:41:09;4.33;;;1.77;;
85257;SDS011;75669;48.038;10.158;2024-01-30T03:43:35;3.17;;;1.35;;
85257;SDS011;75669;48.038;10.158;2024-01-30T03:46:01;4.43;;;1.27;;
85257;SDS011;75669;48.038;10.158;2024-01-30T03:48:28;4.03;;;1.35;;
85257;SDS011;75669;48.038;10.158;2024-01-30T03:50:54;3.78;;;1.65;;
85257;SDS011;75669;48.038;10.158;2024-01-30T03:53:19;3.10;;;1.52;;
85257;SDS011;75669;48.038;10.158;2024-01-30T03:55:44;3.58;;;1.50;;
85257;SDS011;75669;48.038;10.158;2024-01-30T03:58:10;5.28;;;1.90;;
85257;SDS011;75669;48.038;10.158;2024-01-30T04:00:35;5.00;;;2.00;;
85257;SDS011;75669;48.038;10.158;2024-01-30T04:03:01;5.35;;;1.80;;
85257;SDS011;75669;48.038;10.158;2024-01-30T04:05:26;4.18;;;1.88;;
85257;SDS011;75669;48.038;10.158;2024-01-30T04:07:51;3.40;;;1.45;;
85257;SDS011;75669;48.038;10.158;2024-01-30T04:10:17;2.83;;;1.30;;
85257;SDS011;75669;48.038;10.158;2024-01-30T04:12:42;3.90;;;1.40;;
85257;SDS011;75669;48.038;10.158;2024-01-30T04:15:08;3.97;;;1.33;;
85257;SDS011;75669;48.038;10.158;2024-01-30T04:17:33;3.88;;;1.42;;
85257;SDS011;75669;48.038;10.158;2024-01-30T04:19:59;2.97;;;1.38;;
85257;SDS011;75669;48.038;10.158;2024-01-30T04:22:24;3.75;;;1.35;;
85257;SDS011;75669;48.038;10.158;2024-01-30T04:24:49;3.00;;;1.40;;
85257;SDS011;75669;48.038;10.158;2024-01-30T04:27:15;3.50;;;1.33;;
85257;SDS011;75669;48.038;10.158;2024-01-30T04:29:40;2.85;;;1.27;;
85257;SDS011;75669;48.038;10.158;2024-01-30T04:32:06;3.92;;;1.55;;
85257;SDS011;75669;48.038;10.158;2024-01-30T04:34:31;2.45;;;0.90;;
85257;SDS011;75669;48.038;10.158;2024-01-30T04:36:56;2.83;;;1.08;;
85257;SDS011;75669;48.038;10.158;2024-01-30T04:39:22;3.08;;;1.45;;
85257;SDS011;75669;48.038;10.158;2024-01-30T04:41:47;3.22;;;1.02;;
85257;SDS011;75669;48.038;10.158;2024-01-30T04:44:13;3.38;;;1.65;;
85257;SDS011;75669;48.038;10.158;2024-01-30T04:46:39;3.08;;;1.67;;
85257;SDS011;75669;48.038;10.158;2024-01-30T04:49:04;4.45;;;1.05;;
85257;SDS011;75669;48.038;10.158;2024-01-30T04:51:29;3.70;;;1.17;;
85257;SDS011;75669;48.038;10.158;2024-01-30T04:53:55;2.63;;;1.10;;
85257;SDS011;75669;48.038;10.158;2024-01-30T04:56:20;3.80;;;1.17;;
85257;SDS011;75669;48.038;10.158;2024-01-30T04:58:46;3.25;;;1.70;;
85257;SDS011;75669;48.038;10.158;2024-01-30T05:01:15;4.00;;;1.58;;
85257;SDS011;75669;48.038;10.158;2024-01-30T05:03:43;4.60;;;1.33;;
85257;SDS011;75669;48.038;10.158;2024-01-30T05:06:08;6.93;;;1.10;;
85257;SDS011;75669;48.038;10.158;2024-01-30T05:08:34;2.67;;;1.67;;
85257;SDS011;75669;48.038;10.158;2024-01-30T05:11:01;3.97;;;1.33;;
85257;SDS011;75669;48.038;10.158;2024-01-30T05:13:30;3.13;;;0.85;;
85257;SDS011;75669;48.038;10.158;2024-01-30T05:15:56;4.18;;;1.75;;
85257;SDS011;75669;48.038;10.158;2024-01-30T05:18:21;3.83;;;1.48;;
85257;SDS011;75669;48.038;10.158;2024-01-30T05:20:46;5.00;;;1.90;;
85257;SDS011;75669;48.038;10.158;2024-01-30T05:23:12;4.47;;;1.50;;
85257;SDS011;75669;48.038;10.158;2024-01-30T05:25:37;3.33;;;1.50;;
85257;SDS011;75669;48.038;10.158;2024-01-30T05:28:03;3.80;;;1.08;;
85257;SDS011;75669;48.038;10.158;2024-01-30T05:30:29;3.60;;;1.15;;
85257;SDS011;75669;48.038;10.158;2024-01-30T05:32:54;4.85;;;1.80;;
85257;SDS011;75669;48.038;10.158;2024-01-30T05:35:19;6.85;;;1.38;;
85257;SDS011;75669;48.038;10.158;2024-01-30T05:37:46;2.80;;;1.42;;
85257;SDS011;75669;48.038;10.158;2024-01-30T05:40:13;2.92;;;1.20;;
85257;SDS011;75669;48.038;10.158;2024-01-30T05:42:38;3.20;;;1.23;;
85257;SDS011;75669;48.038;10.158;2024-01-30T05:45:03;3.90;;;1.42;;
85257;SDS011;75669;48.038;10.158;2024-01-30T05:47:30;3.97;;;1.55;;
85257;SDS011;75669;48.038;10.158;2024-01-30T05:49:56;4.68;;;1.50;;
85257;SDS011;75669;48.038;10.158;2024-01-30T05:52:21;3.25;;;0.95;;
85257;SDS011;75669;48.038;10.158;2024-01-30T05:54:46;4.93;;;1.60;;
85257;SDS011;75669;48.038;10.158;2024-01-30T05:57:12;4.20;;;1.42;;
85257;SDS011;75669;48.038;10.158;2024-01-30T05:59:37;7.15;;;1.52;;
85257;SDS011;75669;48.038;10.158;2024-01-30T06:02:02;3.50;;;1.35;;
85257;SDS011;75669;48.038;10.158;2024-01-30T06:04:28;2.88;;;1.42;;
85257;SDS011;75669;48.038;10.158;2024-01-30T06:06:53;3.97;;;1.53;;
85257;SDS011;75669;48.038;10.158;2024-01-30T06:09:19;3.90;;;1.48;;
85257;SDS011;75669;48.038;10.158;2024-01-30T06:11:44;3.58;;;1.45;;
85257;SDS011;75669;48.038;10.158;2024-01-30T06:14:10;2.75;;;0.80;;
85257;SDS011;75669;48.038;10.158;2024-01-30T06:16:35;3.63;;;1.27;;
85257;SDS011;75669;48.038;10.158;2024-01-30T06:19:00;4.00;;;1.38;;
85257;SDS011;75669;48.038;10.158;2024-01-30T06:21:26;4.47;;;1.60;;
85257;SDS011;75669;48.038;10.158;2024-01-30T06:23:51;6.45;;;2.05;;
85257;SDS011;75669;48.038;10.158;2024-01-30T06:26:16;3.40;;;1.35;;
85257;SDS011;75669;48.038;10.158;2024-01-30T06:28:42;4.63;;;1.38;;
85257;SDS011;75669;48.038;10.158;2024-01-30T06:31:07;4.20;;;1.65;;
85257;SDS011;75669;48.038;10.158;2024-01-30T06:33:33;5.25;;;3.00;;
85257;SDS011;75669;48.038;10.158;2024-01-30T06:35:58;4.40;;;1.88;;
85257;SDS011;75669;48.038;10.158;2024-01-30T06:38:23;3.30;;;1.40;;
85257;SDS011;75669;48.038;10.158;2024-01-30T06:40:49;5.13;;;1.33;;
85257;SDS011;75669;48.038;10.158;2024-01-30T06:43:14;5.78;;;2.05;;
85257;SDS011;75669;48.038;10.158;2024-01-30T06:45:40;7.63;;;2.80;;
85257;SDS011;75669;48.038;10.158;2024-01-30T06:48:05;12.45;;;6.20;;
85257;SDS011;75669;48.038;10.158;2024-01-30T06:50:31;7.57;;;3.80;;
85257;SDS011;75669;48.038;10.158;2024-01-30T06:52:56;3.90;;;1.92;;
85257;SDS011;75669;48.038;10.158;2024-01-30T06:55:22;4.45;;;1.33;;
85257;SDS011;75669;48.038;10.158;2024-01-30T06:57:47;3.25;;;1.38;;
85257;SDS011;75669;48.038;10.158;2024-01-30T07:00:12;4.38;;;1.45;;
85257;SDS011;75669;48.038;10.158;2024-01-30T07:02:39;3.58;;;1.42;;
85257;SDS011;75669;48.038;10.158;2024-01-30T07:05:04;4.43;;;2.20;;
85257;SDS011;75669;48.038;10.158;2024-01-30T07:07:30;5.75;;;2.65;;
85257;SDS011;75669;48.038;10.158;2024-01-30T07:09:55;7.22;;;2.63;;
85257;SDS011;75669;48.038;10.158;2024-01-30T07:12:23;6.97;;;2.45;;
85257;SDS011;75669;48.038;10.158;2024-01-30T07:14:50;4.97;;;1.83;;
85257;SDS011;75669;48.038;10.158;2024-01-30T07:17:16;5.22;;;2.08;;
85257;SDS011;75669;48.038;10.158;2024-01-30T07:19:41;6.07;;;2.20;;
85257;SDS011;75669;48.038;10.158;2024-01-30T07:22:07;3.88;;;2.08;;
85257;SDS011;75669;48.038;10.158;2024-01-30T07:24:33;5.88;;;2.10;;
85257;SDS011;75669;48.038;10.158;2024-01-30T07:26:58;5.75;;;1.58;;
85257;SDS011;75669;48.038;10.158;2024-01-30T07:29:23;4.87;;;1.77;;
85257;SDS011;75669;48.038;10.158;2024-01-30T07:31:49;6.00;;;1.58;;
85257;SDS011;75669;48.038;10.158;2024-01-30T07:34:14;5.40;;;1.70;;
85257;SDS011;75669;48.038;10.158;2024-01-30T07:36:40;4.68;;;1.70;;
85257;SDS011;75669;48.038;10.158;2024-01-30T07:39:05;4.88;;;2.25;;
85257;SDS011;75669;48.038;10.158;2024-01-30T07:41:30;6.20;;;2.53;;
85257;SDS011;75669;48.038;10.158;2024-01-30T07:43:56;5.38;;;2.28;;
85257;SDS011;75669;48.038;10.158;2024-01-30T07:46:22;7.80;;;2.53;;
85257;SDS011;75669;48.038;10.158;2024-01-30T07:48:47;6.60;;;2.97;;
85257;SDS011;75669;48.038;10.158;2024-01-30T07:51:12;5.67;;;3.20;;
85257;SDS011;75669;48.038;10.158;2024-01-30T07:53:38;7.05;;;3.05;;
85257;SDS011;75669;48.038;10.158;2024-01-30T07:56:03;7.90;;;3.43;;
85257;SDS011;75669;48.038;10.158;2024-01-30T07:58:29;7.93;;;3.92;;
85257;SDS011;75669;48.038;10.158;2024-01-30T08:00:54;11.27;;;3.72;;
85257;SDS011;75669;48.038;10.158;2024-01-30T08:03:21;20.02;;;7.57;;
85257;SDS011;75669;48.038;10.158;2024-01-30T08:05:47;19.42;;;7.65;;
85257;SDS011;75669;48.038;10.158;2024-01-30T08:08:12;13.13;;;4.30;;
85257;SDS011;75669;48.038;10.158;2024-01-30T08:10:37;5.80;;;2.78;;
85257;SDS011;75669;48.038;10.158;2024-01-30T08:13:03;4.15;;;1.70;;
85257;SDS011;75669;48.038;10.158;2024-01-30T08:15:28;3.60;;;1.23;;
85257;SDS011;75669;48.038;10.158;2024-01-30T08:17:54;4.10;;;1.67;;
85257;SDS011;75669;48.038;10.158;2024-01-30T08:20:23;5.07;;;2.47;;
85257;SDS011;75669;48.038;10.158;2024-01-30T08:22:48;6.18;;;2.38;;
85257;SDS011;75669;48.038;10.158;2024-01-30T08:25:14;4.45;;;1.67;;
85257;SDS011;75669;48.038;10.158;2024-01-30T08:27:39;5.15;;;1.70;;
85257;SDS011;75669;48.038;10.158;2024-01-30T08:30:08;4.13;;;1.52;;
85257;SDS011;75669;48.038;10.158;2024-01-30T08:32:34;4.13;;;1.55;;
85257;SDS011;75669;48.038;10.158;2024-01-30T08:34:59;4.55;;;1.60;;
85257;SDS011;75669;48.038;10.158;2024-01-30T08:37:28;3.03;;;0.95;;
85257;SDS011;75669;48.038;10.158;2024-01-30T08:39:54;3.90;;;1.35;;
85257;SDS011;75669;48.038;10.158;2024-01-30T08:42:19;5.93;;;1.58;;
85257;SDS011;75669;48.038;10.158;2024-01-30T08:44:47;5.82;;;1.33;;
85257;SDS011;75669;48.038;10.158;2024-01-30T08:47:14;6.30;;;1.75;;
85257;SDS011;75669;48.038;10.158;2024-01-30T08:49:41;4.32;;;1.10;;
85257;SDS011;75669;48.038;10.158;2024-01-30T08:52:09;6.20;;;2.15;;
85257;SDS011;75669;48.038;10.158;2024-01-30T08:54:34;14.60;;;5.38;;
85257;SDS011;75669;48.038;10.158;2024-01-30T08:57:00;9.13;;;3.60;;
85257;SDS011;75669;48.038;10.158;2024-01-30T08:59:25;7.43;;;1.80;;
85257;SDS011;75669;48.038;10.158;2024-01-30T09:01:50;8.27;;;1.55;;
85257;SDS011;75669;48.038;10.158;2024-01-30T09:04:19;4.38;;;1.95;;
85257;SDS011;75669;48.038;10.158;2024-01-30T09:06:45;4.18;;;1.63;;
85257;SDS011;75669;48.038;10.158;2024-01-30T09:09:10;6.45;;;2.53;;
85257;SDS011;75669;48.038;10.158;2024-01-30T09:11:35;5.00;;;2.28;;
85257;SDS011;75669;48.038;10.158;2024-01-30T09:14:01;7.30;;;1.85;;
85257;SDS011;75669;48.038;10.158;2024-01-30T09:16:26;5.05;;;2.25;;
85257;SDS011;75669;48.038;10.158;2024-01-30T09:18:52;4.32;;;1.55;;
85257;SDS011;75669;48.038;10.158;2024-01-30T09:21:17;7.47;;;2.13;;
85257;SDS011;75669;48.038;10.158;2024-01-30T09:23:42;3.90;;;1.70;;
85257;SDS011;75669;48.038;10.158;2024-01-30T09:26:08;5.07;;;2.38;;
85257;SDS011;75669;48.038;10.158;2024-01-30T09:28:34;5.97;;;1.77;;
85257;SDS011;75669;48.038;10.158;2024-01-30T09:30:59;5.53;;;2.45;;
85257;SDS011;75669;48.038;10.158;2024-01-30T09:33:25;5.88;;;2.45;;
85257;SDS011;75669;48.038;10.158;2024-01-30T09:35:50;4.10;;;2.03;;
85257;SDS011;75669;48.038;10.158;2024-01-30T09:38:16;5.50;;;2.25;;
85257;SDS011;75669;48.038;10.158;2024-01-30T09:40:41;5.38;;;1.73;;
85257;SDS011;75669;48.038;10.158;2024-01-30T09:43:07;4.05;;;1.75;;
85257;SDS011;75669;48.038;10.158;2024-01-30T09:45:32;6.55;;;1.52;;
85257;SDS011;75669;48.038;10.158;2024-01-30T09:48:00;5.60;;;1.75;;
85257;SDS011;75669;48.038;10.158;2024-01-30T09:50:25;6.03;;;1.63;;
85257;SDS011;75669;48.038;10.158;2024-01-30T09:52:51;6.45;;;2.63;;
85257;SDS011;75669;48.038;10.158;2024-01-30T09:55:20;6.72;;;1.90;;
85257;SDS011;75669;48.038;10.158;2024-01-30T09:57:45;4.90;;;2.20;;
85257;SDS011;75669;48.038;10.158;2024-01-30T10:00:11;5.07;;;2.05;;
85257;SDS011;75669;48.038;10.158;2024-01-30T10:02:38;5.50;;;2.33;;
85257;SDS011;75669;48.038;10.158;2024-01-30T10:05:04;4.25;;;1.63;;
85257;SDS011;75669;48.038;10.158;2024-01-30T10:07:30;5.85;;;2.03;;
85257;SDS011;75669;48.038;10.158;2024-01-30T10:09:56;6.13;;;2.15;;
85257;SDS011;75669;48.038;10.158;2024-01-30T10:12:22;7.50;;;3.42;;
85257;SDS011;75669;48.038;10.158;2024-01-30T10:14:47;8.90;;;4.55;;
85257;SDS011;75669;48.038;10.158;2024-01-30T10:17:13;11.98;;;5.90;;
85257;SDS011;75669;48.038;10.158;2024-01-30T10:19:39;10.75;;;5.15;;
85257;SDS011;75669;48.038;10.158;2024-01-30T10:22:05;9.43;;;4.28;;
85257;SDS011;75669;48.038;10.158;2024-01-30T10:24:31;10.27;;;3.47;;
85257;SDS011;75669;48.038;10.158;2024-01-30T10:26:58;6.40;;;3.20;;
85257;SDS011;75669;48.038;10.158;2024-01-30T10:29:23;6.38;;;2.55;;
85257;SDS011;75669;48.038;10.158;2024-01-30T10:31:59;5.20;;;2.53;;
85257;SDS011;75669;48.038;10.158;2024-01-30T10:34:28;7.53;;;3.65;;
85257;SDS011;75669;48.038;10.158;2024-01-30T10:37:04;7.28;;;3.83;;
85257;SDS011;75669;48.038;10.158;2024-01-30T10:39:31;6.03;;;2.42;;
85257;SDS011;75669;48.038;10.158;2024-01-30T10:42:03;6.43;;;2.97;;
85257;SDS011;75669;48.038;10.158;2024-01-30T10:44:30;6.35;;;1.95;;
85257;SDS011;75669;48.038;10.158;2024-01-30T10:47:06;6.28;;;2.45;;
85257;SDS011;75669;48.038;10.158;2024-01-30T10:49:36;6.18;;;2.90;;
85257;SDS011;75669;48.038;10.158;2024-01-30T10:52:03;5.80;;;2.78;;
85257;SDS011;75669;48.038;10.158;2024-01-30T10:54:30;6.25;;;2.58;;
85257;SDS011;75669;48.038;10.158;2024-01-30T10:56:58;6.03;;;2.67;;
85257;SDS011;75669;48.038;10.158;2024-01-30T10:59:30;6.13;;;2.38;;
85257;SDS011;75669;48.038;10.158;2024-01-30T11:01:57;4.93;;;1.67;;
85257;SDS011;75669;48.038;10.158;2024-01-30T11:04:23;6.03;;;2.45;;
85257;SDS011;75669;48.038;10.158;2024-01-30T11:06:50;7.07;;;3.22;;
85257;SDS011;75669;48.038;10.158;2024-01-30T11:09:17;6.18;;;2.22;;
85257;SDS011;75669;48.038;10.158;2024-01-30T11:11:55;6.78;;;2.50;;
85257;SDS011;75669;48.038;10.158;2024-01-30T11:14:25;5.18;;;2.35;;
85257;SDS011;75669;48.038;10.158;2024-01-30T11:16:58;6.20;;;2.25;;
85257;SDS011;75669;48.038;10.158;2024-01-30T11:19:24;5.47;;;2.50;;
85257;SDS011;75669;48.038;10.158;2024-01-30T11:21:54;8.48;;;3.35;;
85257;SDS011;75669;48.038;10.158;2024-01-30T11:24:21;8.50;;;3.30;;
85257;SDS011;75669;48.038;10.158;2024-01-30T11:26:55;10.05;;;4.30;;
85257;SDS011;75669;48.038;10.158;2024-01-30T11:29:25;9.13;;;4.43;;
85257;SDS011;75669;48.038;10.158;2024-01-30T11:31:55;12.57;;;5.43;;
85257;SDS011;75669;48.038;10.158;2024-01-30T11:34:22;8.75;;;4.75;;
85257;SDS011;75669;48.038;10.158;2024-01-30T11:36:51;8.02;;;4.70;;
85257;SDS011;75669;48.038;10.158;2024-01-30T11:39:20;9.50;;;4.68;;
85257;SDS011;75669;48.038;10.158;2024-01-30T11:41:47;9.38;;;4.10;;
85257;SDS011;75669;48.038;10.158;2024-01-30T11:46:41;10.83;;;4.33;;
85257;SDS011;75669;48.038;10.158;2024-01-30T11:49:06;11.85;;;4.90;;
85257;SDS011;75669;48.038;10.158;2024-01-30T11:51:32;7.68;;;3.90;;
85257;SDS011;75669;48.038;10.158;2024-01-30T11:53:57;7.32;;;4.22;;
85257;SDS011;75669;48.038;10.158;2024-01-30T11:56:23;10.05;;;3.97;;
85257;SDS011;75669;48.038;10.158;2024-01-30T11:58:50;7.45;;;4.22;;
85257;SDS011;75669;48.038;10.158;2024-01-30T12:01:17;8.88;;;4.43;;
85257;SDS011;75669;48.038;10.158;2024-01-30T12:03:42;8.68;;;4.20;;
85257;SDS011;75669;48.038;10.158;2024-01-30T12:06:15;9.88;;;4.13;;
85257;SDS011;75669;48.038;10.158;2024-01-30T12:08:40;8.98;;;3.88;;
85257;SDS011;75669;48.038;10.158;2024-01-30T12:11:06;10.23;;;3.30;;
85257;SDS011;75669;48.038;10.158;2024-01-30T12:13:32;6.50;;;3.72;;
85257;SDS011;75669;48.038;10.158;2024-01-30T12:15:57;7.63;;;2.63;;
85257;SDS011;75669;48.038;10.158;2024-01-30T12:18:23;7.18;;;3.15;;
85257;SDS011;75669;48.038;10.158;2024-01-30T12:20:57;6.63;;;3.08;;
85257;SDS011;75669;48.038;10.158;2024-01-30T12:23:26;8.93;;;3.22;;
85257;SDS011;75669;48.038;10.158;2024-01-30T12:25:52;9.43;;;3.90;;
85257;SDS011;75669;48.038;10.158;2024-01-30T12:28:18;7.07;;;3.75;;
85257;SDS011;75669;48.038;10.158;2024-01-30T12:30:44;6.18;;;3.17;;
85257;SDS011;75669;48.038;10.158;2024-01-30T12:33:09;7.20;;;3.53;;
85257;SDS011;75669;48.038;10.158;2024-01-30T12:35:40;7.32;;;2.83;;
85257;SDS011;75669;48.038;10.158;2024-01-30T12:38:11;8.18;;;3.20;;
85257;SDS011;75669;48.038;10.158;2024-01-30T12:40:36;9.43;;;4.40;;
85257;SDS011;75669;48.038;10.158;2024-01-30T12:43:02;6.70;;;3.65;;
85257;SDS011;75669;48.038;10.158;2024-01-30T12:45:31;8.32;;;3.50;;
85257;SDS011;75669;48.038;10.158;2024-01-30T12:47:56;9.77;;;3.53;;
85257;SDS011;75669;48.038;10.158;2024-01-30T12:50:23;6.63;;;3.17;;
85257;SDS011;75669;48.038;10.158;2024-01-30T12:52:49;10.65;;;3.20;;
85257;SDS011;75669;48.038;10.158;2024-01-30T12:55:14;8.27;;;3.40;;
85257;SDS011;75669;48.038;10.158;2024-01-30T12:57:39;11.07;;;4.68;;
85257;SDS011;75669;48.038;10.158;2024-01-30T13:00:05;8.25;;;4.15;;
85257;SDS011;75669;48.038;10.158;2024-01-30T13:02:33;9.75;;;3.90;;
85257;SDS011;75669;48.038;10.158;2024-01-30T13:05:02;9.40;;;3.70;;
85257;SDS011;75669;48.038;10.158;2024-01-30T13:07:30;7.32;;;3.92;;
85257;SDS011;75669;48.038;10.158;2024-01-30T13:09:58;7.72;;;4.13;;
85257;SDS011;75669;48.038;10.158;2024-01-30T13:12:29;10.45;;;3.45;;
85257;SDS011;75669;48.038;10.158;2024-01-30T13:14:55;8.48;;;3.20;;
85257;SDS011;75669;48.038;10.158;2024-01-30T13:17:20;7.72;;;3.55;;
85257;SDS011;75669;48.038;10.158;2024-01-30T13:19:46;9.02;;;4.57;;
85257;SDS011;75669;48.038;10.158;2024-01-30T13:22:13;7.80;;;3.20;;
85257;SDS011;75669;48.038;10.158;2024-01-30T13:24:39;5.57;;;2.37;;
85257;SDS011;75669;48.038;10.158;2024-01-30T13:27:04;8.82;;;3.28;;
85257;SDS011;75669;48.038;10.158;2024-01-30T13:29:31;7.72;;;2.78;;
85257;SDS011;75669;48.038;10.158;2024-01-30T13:31:57;6.95;;;3.38;;
85257;SDS011;75669;48.038;10.158;2024-01-30T13:34:22;9.32;;;3.00;;
85257;SDS011;75669;48.038;10.158;2024-01-30T13:36:47;6.97;;;3.17;;
85257;SDS011;75669;48.038;10.158;2024-01-30T13:39:14;7.80;;;3.85;;
85257;SDS011;75669;48.038;10.158;2024-01-30T13:41:40;10.32;;;4.00;;
85257;SDS011;75669;48.038;10.158;2024-01-30T13:44:06;7.93;;;3.65;;
85257;SDS011;75669;48.038;10.158;2024-01-30T13:46:32;8.10;;;3.83;;
85257;SDS011;75669;48.038;10.158;2024-01-30T13:48:57;8.10;;;3.60;;
85257;SDS011;75669;48.038;10.158;2024-01-30T13:51:23;8.65;;;3.63;;
85257;SDS011;75669;48.038;10.158;2024-01-30T13:53:48;9.10;;;3.92;;
85257;SDS011;75669;48.038;10.158;2024-01-30T13:56:15;7.47;;;3.08;;
85257;SDS011;75669;48.038;10.158;2024-01-30T13:58:40;7.70;;;2.78;;
85257;SDS011;75669;48.038;10.158;2024-01-30T14:01:06;9.02;;;3.67;;
85257;SDS011;75669;48.038;10.158;2024-01-30T14:03:31;8.07;;;3.22;;
85257;SDS011;75669;48.038;10.158;2024-01-30T14:05:57;9.10;;;3.78;;
85257;SDS011;75669;48.038;10.158;2024-01-30T14:08:23;10.98;;;3.85;;
85257;SDS011;75669;48.038;10.158;2024-01-30T14:10:51;8.85;;;3.83;;
85257;SDS011;75669;48.038;10.158;2024-01-30T14:13:17;7.75;;;4.10;;
85257;SDS011;75669;48.038;10.158;2024-01-30T14:15:42;6.88;;;3.45;;
85257;SDS011;75669;48.038;10.158;2024-01-30T14:18:08;6.88;;;3.85;;
85257;SDS011;75669;48.038;10.158;2024-01-30T14:20:34;7.32;;;3.13;;
85257;SDS011;75669;48.038;10.158;2024-01-30T14:22:59;7.97;;;3.60;;
85257;SDS011;75669;48.038;10.158;2024-01-30T14:25:25;6.97;;;3.20;;
85257;SDS011;75669;48.038;10.158;2024-01-30T14:27:51;12.48;;;4.03;;
85257;SDS011;75669;48.038;10.158;2024-01-30T14:30:16;7.25;;;3.50;;
85257;SDS011;75669;48.038;10.158;2024-01-30T14:32:42;9.88;;;3.65;;